createdAt,value
2023-02-11T00:04:01.113Z,101247.35
2023-02-11T00:09:05.033Z,101213.85
2023-02-11T00:14:08.433Z,101194.43
2023-02-11T00:19:11.243Z,101182.92
2023-02-11T00:24:14.047Z,101179.63
2023-02-11T00:29:16.808Z,101160.39
2023-02-11T00:34:19.538Z,101148.35
2023-02-11T00:39:22.170Z,101157.98
2023-02-11T00:44:25.214Z,101148.68
2023-02-11T00:49:28.096Z,101135.79
2023-02-11T00:54:30.824Z,101125.81
2023-02-11T00:59:33.645Z,101104.35
2023-02-11T01:04:36.358Z,101091.64
2023-02-11T01:09:39.355Z,101072.25
2023-02-11T01:14:42.351Z,101060.08
2023-02-11T01:19:45.164Z,101026.59
2023-02-11T01:24:47.872Z,101003.07
2023-02-11T01:29:50.691Z,101006.68
2023-02-11T01:34:53.429Z,100975.95
2023-02-11T01:39:56.167Z,100980.57
2023-02-11T01:45:02.127Z,100973.52
2023-02-11T01:50:05.320Z,100969.07
2023-02-11T01:55:31.613Z,100971.14
2023-02-11T02:00:37.895Z,100953.28
2023-02-11T02:06:06.140Z,100961.02
2023-02-11T02:11:08.878Z,100957.94
2023-02-11T02:16:17.964Z,100937.67
2023-02-11T02:21:46.024Z,100929.96
2023-02-11T02:27:10.645Z,100931.54
2023-02-11T02:32:23.368Z,100917.15
2023-02-11T02:37:51.746Z,100910.33
2023-02-11T02:42:55.278Z,100879.12
2023-02-11T02:47:58.145Z,100859.59
2023-02-11T02:53:11.152Z,100840.89
2023-02-11T02:58:43.120Z,100839.86
2023-02-11T03:04:01.300Z,100841.77
2023-02-11T03:09:19.349Z,100833.38
2023-02-11T03:14:26.945Z,100821.55
2023-02-11T03:19:34.983Z,100797.69
2023-02-11T03:24:39.806Z,100802.30
2023-02-11T03:29:49.502Z,100781.19
2023-02-11T03:35:14.315Z,100767.13
2023-02-11T03:40:26.743Z,100759.22
2023-02-11T03:45:30.625Z,100759.23
2023-02-11T03:50:36.378Z,100755.43
2023-02-11T03:55:40.437Z,100754.05
2023-02-11T04:00:44.542Z,100749.39
2023-02-11T04:05:47.522Z,100745.81
2023-02-11T04:10:50.367Z,100732.11
2023-02-11T04:15:53.476Z,100718.73
2023-02-11T04:20:56.618Z,100709.48
2023-02-11T04:25:59.525Z,100692.46
2023-02-11T04:31:02.496Z,100684.39
2023-02-11T04:36:05.530Z,100672.01
2023-02-11T04:41:08.342Z,100670.14
2023-02-11T04:46:11.104Z,100658.14
2023-02-11T04:51:14.121Z,100650.80
2023-02-11T04:56:16.850Z,100649.46
2023-02-11T05:01:19.768Z,100643.80
2023-02-11T05:06:22.945Z,100647.93
2023-02-11T05:11:26.454Z,100632.73
2023-02-11T05:16:29.219Z,100619.84
2023-02-11T05:21:32.077Z,100617.37
2023-02-11T05:26:34.879Z,100596.36
2023-02-11T05:31:37.716Z,100597.63
2023-02-11T05:36:40.427Z,100592.52
2023-02-11T05:41:43.182Z,100576.77
2023-02-11T05:46:45.959Z,100563.59
2023-02-11T05:51:48.790Z,100572.86
2023-02-11T05:56:51.591Z,100571.88
2023-02-11T06:01:54.332Z,100542.23
2023-02-11T06:06:57.296Z,100553.41
2023-02-11T06:12:00.321Z,100547.92
2023-02-11T06:17:03.274Z,100528.58
2023-02-11T06:22:05.984Z,100534.92
2023-02-11T06:27:08.731Z,100528.91
2023-02-11T06:32:28.144Z,100525.30
2023-02-11T06:37:35.312Z,100516.86
2023-02-11T06:42:39.397Z,100522.52
2023-02-11T06:47:42.343Z,100521.98
2023-02-11T06:52:45.051Z,100516.30
2023-02-11T06:57:47.833Z,100502.26
2023-02-11T07:02:50.516Z,100490.27
2023-02-11T07:07:53.334Z,100475.36
2023-02-11T07:12:58.696Z,100475.17
2023-02-11T07:18:01.673Z,100484.59
2023-02-11T07:23:05.117Z,100464.53
2023-02-11T07:28:07.920Z,100455.23
2023-02-11T07:33:11.129Z,100476.48
2023-02-11T07:38:14.237Z,100486.41
2023-02-11T07:43:16.929Z,100493.06
2023-02-11T07:48:19.635Z,100488.62
2023-02-11T07:53:22.326Z,100475.08
2023-02-11T07:58:25.141Z,100465.33
2023-02-11T08:03:28.099Z,100459.37
2023-02-11T08:08:30.911Z,100449.45
2023-02-11T08:13:34.152Z,100440.02
2023-02-11T08:18:37.067Z,100426.95
2023-02-11T08:23:41.441Z,100430.17
2023-02-11T08:28:45.909Z,100446.61
2023-02-11T08:33:49.043Z,100438.02
2023-02-11T08:38:52.170Z,100437.98
2023-02-11T08:43:55.087Z,100428.88
2023-02-11T08:48:58.061Z,100426.60
2023-02-11T08:54:01.092Z,100415.40
2023-02-11T08:59:04.172Z,100410.85
2023-02-11T09:04:07.406Z,100416.63
2023-02-11T09:09:13.617Z,100414.13
2023-02-11T09:14:20.088Z,100405.95
2023-02-11T09:19:23.276Z,100400.20
2023-02-11T09:24:26.002Z,100374.92
2023-02-11T09:29:28.782Z,100372.48
2023-02-11T09:34:31.563Z,100362.98
2023-02-11T09:39:34.317Z,100377.16
2023-02-11T09:44:38.930Z,100390.48
2023-02-11T09:49:47.728Z,100395.08
2023-02-11T09:54:59.610Z,100395.76
2023-02-11T10:00:17.320Z,100395.70
2023-02-11T10:05:25.685Z,100397.01
2023-02-11T10:10:50.273Z,100374.63
2023-02-11T10:16:27.127Z,100376.91
2023-02-11T10:22:08.773Z,100358.73
2023-02-11T10:27:21.991Z,100363.69
2023-02-11T10:32:49.289Z,100344.84
2023-02-11T10:37:51.992Z,100341.62
2023-02-11T10:43:02.846Z,100329.65
2023-02-11T10:48:26.364Z,100330.42
2023-02-11T10:53:29.072Z,100326.41
2023-02-11T10:58:41.971Z,100327.73
2023-02-11T11:03:51.125Z,100322.52
2023-02-11T11:08:53.812Z,100310.48
2023-02-11T11:14:00.742Z,100304.48
2023-02-11T11:19:06.218Z,100302.95
2023-02-11T11:24:45.302Z,100313.63
2023-02-11T11:29:51.824Z,100341.23
2023-02-11T11:35:02.751Z,100350.97
2023-02-11T11:40:10.776Z,100339.14
2023-02-11T11:45:16.247Z,100350.27
2023-02-11T11:50:40.334Z,100356.71
2023-02-11T11:56:00.953Z,100360.73
2023-02-11T12:01:36.181Z,100366.12
2023-02-11T12:06:53.857Z,100364.77
2023-02-11T12:12:15.393Z,100363.31
2023-02-11T12:17:52.074Z,100370.06
2023-02-11T12:23:05.230Z,100371.42
2023-02-11T12:28:38.622Z,100371.95
2023-02-11T12:34:15.260Z,100368.80
2023-02-11T12:39:36.698Z,100371.80
2023-02-11T12:45:04.473Z,100378.95
2023-02-11T12:50:39.363Z,100375.37
2023-02-11T12:55:47.364Z,100372.45
2023-02-11T13:01:06.253Z,100375.06
2023-02-11T13:06:17.859Z,100378.58
2023-02-11T13:11:24.622Z,100392.52
2023-02-11T13:16:33.428Z,100406.84
2023-02-11T13:22:11.284Z,100409.96
2023-02-11T13:27:38.210Z,100414.59
2023-02-11T13:32:55.995Z,100420.89
2023-02-11T13:38:05.182Z,100437.98
2023-02-11T13:43:21.912Z,100432.39
2023-02-11T13:48:26.235Z,100439.50
2023-02-11T13:53:30.227Z,100445.72
2023-02-11T13:58:32.855Z,100450.88
2023-02-11T14:03:56.775Z,100462.42
2023-02-11T14:09:14.640Z,100466.34
2023-02-11T14:14:28.492Z,100481.38
2023-02-11T14:19:33.562Z,100488.23
2023-02-11T14:24:36.241Z,100498.73
2023-02-11T14:29:44.098Z,100505.81
2023-02-11T14:34:52.775Z,100516.92
2023-02-11T14:40:02.988Z,100529.98
2023-02-11T14:45:09.143Z,100539.17
2023-02-11T14:50:19.336Z,100550.77
2023-02-11T14:55:35.693Z,100557.08
2023-02-11T15:01:09.011Z,100572.20
2023-02-11T15:06:29.348Z,100568.93
2023-02-11T15:11:39.454Z,100571.15
2023-02-11T15:16:46.864Z,100591.11
2023-02-11T15:21:51.122Z,100603.80
2023-02-11T15:27:02.908Z,100607.32
2023-02-11T15:32:15.669Z,100619.95
2023-02-11T15:37:25.109Z,100638.31
2023-02-11T15:42:35.834Z,100652.80
2023-02-11T15:47:53.633Z,100658.79
2023-02-11T15:53:00.630Z,100676.90
2023-02-11T15:58:03.530Z,100687.45
2023-02-11T16:03:06.573Z,100700.23
2023-02-11T16:08:29.956Z,100713.54
2023-02-11T16:13:35.300Z,100727.17
2023-02-11T16:18:40.485Z,100744.27
2023-02-11T16:23:49.723Z,100753.36
2023-02-11T16:28:52.993Z,100765.71
2023-02-11T16:33:55.718Z,100780.55
2023-02-11T16:38:58.384Z,100791.23
2023-02-11T16:44:01.425Z,100801.06
2023-02-11T16:49:11.877Z,100809.59
2023-02-11T16:54:16.550Z,100820.52
2023-02-11T16:59:19.759Z,100828.73
2023-02-11T17:04:30.320Z,100842.85
2023-02-11T17:09:33.334Z,100858.18
2023-02-11T17:14:36.006Z,100869.63
2023-02-11T17:19:39.514Z,100874.69
2023-02-11T17:24:42.191Z,100893.05
2023-02-11T17:29:44.902Z,100909.79
2023-02-11T17:34:47.564Z,100929.82
2023-02-11T17:39:51.086Z,100950.55
2023-02-11T17:44:53.808Z,100966.01
2023-02-11T17:49:56.574Z,100987.00
2023-02-11T17:54:59.279Z,101006.96
2023-02-11T18:00:02.393Z,101014.73
2023-02-11T18:05:06.833Z,101027.02
2023-02-11T18:10:10.223Z,101040.85
2023-02-11T18:15:13.133Z,101053.21
2023-02-11T18:20:15.942Z,101066.22
2023-02-11T18:25:18.948Z,101079.52
2023-02-11T18:30:22.729Z,101087.31
2023-02-11T18:35:25.682Z,101102.02
2023-02-11T18:40:28.328Z,101117.45
2023-02-11T18:45:31.401Z,101134.81
2023-02-11T18:50:34.293Z,101144.01
2023-02-11T18:55:42.221Z,101160.23
2023-02-11T19:00:47.388Z,101178.51
2023-02-11T19:05:50.356Z,101189.08
2023-02-11T19:10:53.431Z,101206.41
2023-02-11T19:15:56.285Z,101220.27
2023-02-11T19:20:59.017Z,101237.73
2023-02-11T19:26:04.568Z,101255.54
2023-02-11T19:31:09.188Z,101266.09
2023-02-11T19:36:16.446Z,101277.70
2023-02-11T19:41:22.214Z,101295.63
2023-02-11T19:46:27.772Z,101302.90
2023-02-11T19:51:32.818Z,101322.18
2023-02-11T19:56:35.531Z,101329.78
2023-02-11T20:01:38.344Z,101343.38
2023-02-11T20:06:41.314Z,101354.54
2023-02-11T20:11:44.038Z,101367.80
2023-02-11T20:16:49.730Z,101389.48
2023-02-11T20:21:55.601Z,101398.61
2023-02-11T20:26:58.424Z,101402.02
2023-02-11T20:32:01.341Z,101408.21
2023-02-11T20:37:05.175Z,101418.88
2023-02-11T20:42:12.035Z,101428.36
2023-02-11T20:47:14.659Z,101435.59
2023-02-11T20:52:17.342Z,101438.19
2023-02-11T20:57:20.032Z,101453.67
2023-02-11T21:02:24.781Z,101470.35
2023-02-11T21:07:29.558Z,101479.09
2023-02-11T21:12:32.273Z,101494.89
2023-02-11T21:17:35.166Z,101498.84
2023-02-11T21:22:37.872Z,101500.39
2023-02-11T21:27:40.660Z,101509.33
2023-02-11T21:32:43.477Z,101524.61
2023-02-11T21:37:46.163Z,101530.98
2023-02-11T21:42:48.849Z,101543.00
2023-02-11T21:47:52.180Z,101550.02
2023-02-11T21:52:54.851Z,101553.79
2023-02-11T21:57:57.544Z,101564.25
2023-02-11T22:03:00.293Z,101578.83
2023-02-11T22:08:03.419Z,101578.34
2023-02-11T22:13:06.183Z,101591.05
2023-02-11T22:18:08.857Z,101602.05
2023-02-11T22:23:11.531Z,101609.09
2023-02-11T22:28:14.330Z,101613.20
2023-02-11T22:33:17.595Z,101626.41
2023-02-11T22:38:20.233Z,101635.87
2023-02-11T22:43:23.395Z,101654.06
2023-02-11T22:48:26.288Z,101659.89
2023-02-11T22:53:28.947Z,101672.92
2023-02-11T22:58:32.082Z,101680.32
2023-02-11T23:03:35.521Z,101674.48
2023-02-11T23:08:40.672Z,101670.70
2023-02-11T23:13:45.095Z,101680.33
2023-02-11T23:18:49.212Z,101680.32
2023-02-11T23:23:57.683Z,101696.45
2023-02-11T23:29:00.790Z,101693.02
2023-02-11T23:34:04.377Z,101696.46
2023-02-11T23:39:07.116Z,101698.52
2023-02-11T23:44:10.721Z,101708.98
2023-02-11T23:49:15.658Z,101717.56
2023-02-11T23:54:18.590Z,101736.95
2023-02-11T23:59:21.326Z,101747.42
